sensor_id;sensor_type;location;lat;lon;timestamp;pressure;altitude;pressure_sealevel;temperature;humidity
78210;BME280;67485;48.816;9.930;2023-05-09T00:01:57;97143.13;;;12.93;87.69
78210;BME280;67485;48.816;9.930;2023-05-09T00:04:24;97138.03;;;12.87;87.67
78210;BME280;67485;48.816;9.930;2023-05-09T00:06:50;97138.34;;;12.77;87.15
78210;BME280;67485;48.816;9.930;2023-05-09T00:09:16;97132.97;;;12.80;87.83
78210;BME280;67485;48.816;9.930;2023-05-09T00:11:42;97139.16;;;12.79;87.94
78210;BME280;67485;48.816;9.930;2023-05-09T00:14:09;97137.63;;;12.72;88.64
78210;BME280;67485;48.816;9.930;2023-05-09T00:16:36;97145.50;;;12.72;88.86
78210;BME280;67485;48.816;9.930;2023-05-09T00:19:02;97134.28;;;12.65;89.17
78210;BME280;67485;48.816;9.930;2023-05-09T00:21:28;97134.13;;;12.72;89.29
78210;BME280;67485;48.816;9.930;2023-05-09T00:23:55;97128.19;;;12.65;88.65
78210;BME280;67485;48.816;9.930;2023-05-09T00:26:21;97123.94;;;12.61;88.82
78210;BME280;67485;48.816;9.930;2023-05-09T00:28:47;97122.88;;;12.67;88.25
78210;BME280;67485;48.816;9.930;2023-05-09T00:31:13;97112.94;;;12.76;86.79
78210;BME280;67485;48.816;9.930;2023-05-09T00:33:39;97113.78;;;12.78;85.75
78210;BME280;67485;48.816;9.930;2023-05-09T00:36:04;97106.84;;;12.76;84.86
78210;BME280;67485;48.816;9.930;2023-05-09T00:38:30;97107.28;;;12.60;84.64
78210;BME280;67485;48.816;9.930;2023-05-09T00:40:56;97110.69;;;12.64;85.08
78210;BME280;67485;48.816;9.930;2023-05-09T00:43:22;97096.94;;;12.56;85.06
78210;BME280;67485;48.816;9.930;2023-05-09T00:45:48;97091.94;;;12.46;85.15
78210;BME280;67485;48.816;9.930;2023-05-09T00:48:14;97095.56;;;12.42;86.00
78210;BME280;67485;48.816;9.930;2023-05-09T00:50:41;97088.88;;;12.32;86.54
78210;BME280;67485;48.816;9.930;2023-05-09T00:53:08;97089.91;;;12.26;87.29
78210;BME280;67485;48.816;9.930;2023-05-09T00:55:33;97080.22;;;12.27;88.06
78210;BME280;67485;48.816;9.930;2023-05-09T00:58:01;97083.63;;;12.30;88.84
78210;BME280;67485;48.816;9.930;2023-05-09T01:00:27;97081.72;;;12.37;89.04
78210;BME280;67485;48.816;9.930;2023-05-09T01:02:54;97071.44;;;12.29;88.71
78210;BME280;67485;48.816;9.930;2023-05-09T01:05:21;97081.28;;;12.21;89.22
78210;BME280;67485;48.816;9.930;2023-05-09T01:08:16;97075.25;;;12.18;89.50
78210;BME280;67485;48.816;9.930;2023-05-09T01:10:54;97071.69;;;12.20;88.88
78210;BME280;67485;48.816;9.930;2023-05-09T01:18:45;97061.75;;;12.00;88.18
78210;BME280;67485;48.816;9.930;2023-05-09T01:21:19;97060.84;;;12.01;88.72
78210;BME280;67485;48.816;9.930;2023-05-09T01:26:43;97049.50;;;11.99;88.69
78210;BME280;67485;48.816;9.930;2023-05-09T01:31:40;97049.47;;;12.00;88.05
78210;BME280;67485;48.816;9.930;2023-05-09T01:34:10;97041.69;;;11.97;88.58
78210;BME280;67485;48.816;9.930;2023-05-09T01:36:39;97039.00;;;11.99;88.14
78210;BME280;67485;48.816;9.930;2023-05-09T01:39:12;97038.97;;;12.00;88.29
78210;BME280;67485;48.816;9.930;2023-05-09T01:41:38;97033.56;;;12.05;88.09
78210;BME280;67485;48.816;9.930;2023-05-09T01:44:10;97039.06;;;11.97;88.54
78210;BME280;67485;48.816;9.930;2023-05-09T01:46:37;97031.25;;;11.94;88.72
78210;BME280;67485;48.816;9.930;2023-05-09T01:49:04;97034.72;;;11.95;88.56
78210;BME280;67485;48.816;9.930;2023-05-09T01:51:32;97032.38;;;11.86;89.03
78210;BME280;67485;48.816;9.930;2023-05-09T01:53:59;97038.59;;;11.81;89.41
78210;BME280;67485;48.816;9.930;2023-05-09T01:56:26;97035.16;;;11.79;89.41
78210;BME280;67485;48.816;9.930;2023-05-09T01:58:54;97032.44;;;11.82;88.72
78210;BME280;67485;48.816;9.930;2023-05-09T02:01:21;97034.00;;;11.90;88.58
78210;BME280;67485;48.816;9.930;2023-05-09T02:03:50;97034.06;;;11.87;88.45
78210;BME280;67485;48.816;9.930;2023-05-09T02:06:19;97037.41;;;11.92;88.37
78210;BME280;67485;48.816;9.930;2023-05-09T02:08:47;97041.22;;;11.81;88.94
78210;BME280;67485;48.816;9.930;2023-05-09T02:11:13;97046.94;;;11.97;88.76
78210;BME280;67485;48.816;9.930;2023-05-09T02:13:39;97044.97;;;12.04;88.82
78210;BME280;67485;48.816;9.930;2023-05-09T02:16:06;97039.25;;;11.90;89.13
78210;BME280;67485;48.816;9.930;2023-05-09T02:18:32;97041.16;;;11.84;89.22
78210;BME280;67485;48.816;9.930;2023-05-09T02:21:00;97045.44;;;11.87;88.84
78210;BME280;67485;48.816;9.930;2023-05-09T02:23:26;97054.00;;;11.94;89.62
78210;BME280;67485;48.816;9.930;2023-05-09T02:25:52;97055.66;;;11.98;89.54
78210;BME280;67485;48.816;9.930;2023-05-09T02:28:20;97044.78;;;12.12;88.98
78210;BME280;67485;48.816;9.930;2023-05-09T02:30:48;97049.09;;;12.14;88.18
78210;BME280;67485;48.816;9.930;2023-05-09T02:33:15;97046.63;;;12.08;88.07
78210;BME280;67485;48.816;9.930;2023-05-09T02:35:43;97042.09;;;12.13;88.16
78210;BME280;67485;48.816;9.930;2023-05-09T02:38:11;97051.16;;;12.03;88.30
78210;BME280;67485;48.816;9.930;2023-05-09T02:40:38;97045.22;;;11.95;89.29
78210;BME280;67485;48.816;9.930;2023-05-09T02:43:04;97047.84;;;11.95;89.04
78210;BME280;67485;48.816;9.930;2023-05-09T02:45:30;97050.56;;;11.92;89.45
78210;BME280;67485;48.816;9.930;2023-05-09T02:47:56;97036.69;;;11.88;89.09
78210;BME280;67485;48.816;9.930;2023-05-09T02:50:22;97039.38;;;11.85;89.42
78210;BME280;67485;48.816;9.930;2023-05-09T02:52:48;97036.13;;;11.77;89.91
78210;BME280;67485;48.816;9.930;2023-05-09T02:55:14;97037.00;;;11.76;90.51
78210;BME280;67485;48.816;9.930;2023-05-09T02:57:40;97029.09;;;11.77;90.14
78210;BME280;67485;48.816;9.930;2023-05-09T03:00:07;97034.69;;;11.65;90.58
78210;BME280;67485;48.816;9.930;2023-05-09T03:02:36;97036.47;;;11.63;91.33
78210;BME280;67485;48.816;9.930;2023-05-09T03:05:03;97027.47;;;11.73;90.19
78210;BME280;67485;48.816;9.930;2023-05-09T03:07:29;97036.13;;;11.75;90.20
78210;BME280;67485;48.816;9.930;2023-05-09T03:09:55;97032.44;;;11.82;90.19
78210;BME280;67485;48.816;9.930;2023-05-09T03:12:21;97025.63;;;11.75;89.91
78210;BME280;67485;48.816;9.930;2023-05-09T03:14:51;97030.28;;;11.65;90.31
78210;BME280;67485;48.816;9.930;2023-05-09T03:17:16;97031.22;;;11.63;90.93
78210;BME280;67485;48.816;9.930;2023-05-09T03:19:46;97031.88;;;11.71;90.26
78210;BME280;67485;48.816;9.930;2023-05-09T03:22:13;97022.38;;;11.67;90.59
78210;BME280;67485;48.816;9.930;2023-05-09T03:24:45;97031.38;;;11.57;90.97
78210;BME280;67485;48.816;9.930;2023-05-09T03:27:11;97029.59;;;11.59;91.06
78210;BME280;67485;48.816;9.930;2023-05-09T03:29:37;97036.34;;;11.67;90.52
78210;BME280;67485;48.816;9.930;2023-05-09T03:32:03;97023.84;;;11.77;89.82
78210;BME280;67485;48.816;9.930;2023-05-09T03:34:29;97023.88;;;11.76;89.36
78210;BME280;67485;48.816;9.930;2023-05-09T03:36:56;97017.97;;;11.67;88.60
78210;BME280;67485;48.816;9.930;2023-05-09T03:39:22;97025.25;;;11.58;89.73
78210;BME280;67485;48.816;9.930;2023-05-09T03:41:52;97022.44;;;11.64;89.62
78210;BME280;67485;48.816;9.930;2023-05-09T03:44:18;97017.19;;;11.64;89.26
78210;BME280;67485;48.816;9.930;2023-05-09T03:46:44;97016.34;;;11.63;89.51
78210;BME280;67485;48.816;9.930;2023-05-09T03:49:11;97024.28;;;11.62;88.78
78210;BME280;67485;48.816;9.930;2023-05-09T03:51:36;97016.47;;;11.59;89.01
78210;BME280;67485;48.816;9.930;2023-05-09T03:54:06;97013.13;;;11.54;88.92
78210;BME280;67485;48.816;9.930;2023-05-09T03:56:33;97009.03;;;11.43;89.33
78210;BME280;67485;48.816;9.930;2023-05-09T03:58:58;97001.16;;;11.42;89.65
78210;BME280;67485;48.816;9.930;2023-05-09T04:01:25;97006.09;;;11.54;89.77
78210;BME280;67485;48.816;9.930;2023-05-09T04:03:52;97002.63;;;11.54;89.37
78210;BME280;67485;48.816;9.930;2023-05-09T04:06:19;97004.25;;;11.58;89.62
78210;BME280;67485;48.816;9.930;2023-05-09T04:08:53;96999.88;;;11.58;89.12
78210;BME280;67485;48.816;9.930;2023-05-09T04:11:18;97001.38;;;11.67;88.58
78210;BME280;67485;48.816;9.930;2023-05-09T04:13:47;96997.75;;;11.71;87.10
78210;BME280;67485;48.816;9.930;2023-05-09T04:17:27;97006.63;;;11.67;86.06
78210;BME280;67485;48.816;9.930;2023-05-09T04:19:57;97008.31;;;11.70;86.71
78210;BME280;67485;48.816;9.930;2023-05-09T04:22:23;96998.78;;;11.65;87.65
78210;BME280;67485;48.816;9.930;2023-05-09T04:24:49;96997.94;;;11.65;88.88
78210;BME280;67485;48.816;9.930;2023-05-09T04:33:32;96994.75;;;11.54;87.35
78210;BME280;67485;48.816;9.930;2023-05-09T04:36:00;96998.25;;;11.52;86.80
78210;BME280;67485;48.816;9.930;2023-05-09T04:38:27;96999.72;;;11.63;87.43
78210;BME280;67485;48.816;9.930;2023-05-09T04:40:53;96995.19;;;11.70;86.88
78210;BME280;67485;48.816;9.930;2023-05-09T04:43:18;96984.34;;;11.80;86.83
78210;BME280;67485;48.816;9.930;2023-05-09T04:45:44;96975.72;;;11.77;85.55
78210;BME280;67485;48.816;9.930;2023-05-09T04:48:11;96984.34;;;11.82;85.17
78210;BME280;67485;48.816;9.930;2023-05-09T04:50:37;96992.16;;;11.83;85.12
78210;BME280;67485;48.816;9.930;2023-05-09T04:53:03;96991.84;;;11.96;83.48
78210;BME280;67485;48.816;9.930;2023-05-09T04:55:28;96985.69;;;11.95;82.44
78210;BME280;67485;48.816;9.930;2023-05-09T04:57:55;96984.16;;;11.88;78.69
78210;BME280;67485;48.816;9.930;2023-05-09T05:00:21;96989.44;;;11.87;78.74
78210;BME280;67485;48.816;9.930;2023-05-09T05:02:47;96993.88;;;11.84;80.76
78210;BME280;67485;48.816;9.930;2023-05-09T05:05:13;96998.81;;;11.97;81.88
78210;BME280;67485;48.816;9.930;2023-05-09T05:07:41;96996.09;;;12.00;81.01
78210;BME280;67485;48.816;9.930;2023-05-09T05:10:09;97009.66;;;11.84;79.57
78210;BME280;67485;48.816;9.930;2023-05-09T05:12:36;97006.00;;;11.89;79.76
78210;BME280;67485;48.816;9.930;2023-05-09T05:15:03;97003.97;;;12.00;78.49
78210;BME280;67485;48.816;9.930;2023-05-09T05:17:29;97003.22;;;11.95;76.56
78210;BME280;67485;48.816;9.930;2023-05-09T05:19:57;97000.25;;;12.07;76.67
78210;BME280;67485;48.816;9.930;2023-05-09T05:22:23;96993.56;;;11.97;76.65
78210;BME280;67485;48.816;9.930;2023-05-09T05:24:48;96994.72;;;11.85;76.62
78210;BME280;67485;48.816;9.930;2023-05-09T05:27:14;97002.06;;;12.05;76.78
78210;BME280;67485;48.816;9.930;2023-05-09T05:29:40;96999.59;;;12.29;76.43
78210;BME280;67485;48.816;9.930;2023-05-09T05:32:05;96997.50;;;12.40;74.26
78210;BME280;67485;48.816;9.930;2023-05-09T05:34:31;96993.72;;;12.77;72.46
78210;BME280;67485;48.816;9.930;2023-05-09T05:36:57;96991.97;;;13.03;71.35
78210;BME280;67485;48.816;9.930;2023-05-09T05:39:23;96990.50;;;13.21;70.26
78210;BME280;67485;48.816;9.930;2023-05-09T05:41:50;96983.78;;;13.63;69.57
78210;BME280;67485;48.816;9.930;2023-05-09T05:44:17;96979.72;;;14.02;68.98
78210;BME280;67485;48.816;9.930;2023-05-09T05:46:43;96980.84;;;14.64;67.63
78210;BME280;67485;48.816;9.930;2023-05-09T05:49:09;96981.44;;;14.72;65.26
78210;BME280;67485;48.816;9.930;2023-05-09T05:51:36;96989.00;;;15.23;64.05
78210;BME280;67485;48.816;9.930;2023-05-09T05:54:03;96986.63;;;15.17;63.58
78210;BME280;67485;48.816;9.930;2023-05-09T05:56:29;96982.16;;;15.19;63.53
78210;BME280;67485;48.816;9.930;2023-05-09T05:58:55;96985.53;;;15.62;64.37
78210;BME280;67485;48.816;9.930;2023-05-09T06:01:21;96980.41;;;15.59;62.01
78210;BME280;67485;48.816;9.930;2023-05-09T06:03:47;96976.78;;;15.00;63.13
78210;BME280;67485;48.816;9.930;2023-05-09T06:06:20;96978.16;;;15.50;63.06
78210;BME280;67485;48.816;9.930;2023-05-09T06:08:47;96966.78;;;15.89;63.50
78210;BME280;67485;48.816;9.930;2023-05-09T06:11:15;96964.34;;;16.03;59.88
78210;BME280;67485;48.816;9.930;2023-05-09T06:13:41;96962.03;;;15.77;59.93
78210;BME280;67485;48.816;9.930;2023-05-09T06:16:09;96965.59;;;15.76;60.63
78210;BME280;67485;48.816;9.930;2023-05-09T06:18:35;96958.34;;;16.00;60.57
78210;BME280;67485;48.816;9.930;2023-05-09T06:21:07;96962.88;;;15.77;60.46
78210;BME280;67485;48.816;9.930;2023-05-09T06:23:33;96953.03;;;15.81;61.31
78210;BME280;67485;48.816;9.930;2023-05-09T06:26:02;96947.38;;;16.46;60.15
78210;BME280;67485;48.816;9.930;2023-05-09T06:28:28;96952.59;;;16.47;58.27
78210;BME280;67485;48.816;9.930;2023-05-09T06:30:54;96951.66;;;16.48;58.96
78210;BME280;67485;48.816;9.930;2023-05-09T06:33:20;96949.78;;;16.14;59.43
78210;BME280;67485;48.816;9.930;2023-05-09T06:35:46;96938.66;;;15.67;62.51
78210;BME280;67485;48.816;9.930;2023-05-09T06:38:11;96941.78;;;15.96;63.58
78210;BME280;67485;48.816;9.930;2023-05-09T06:40:37;96944.66;;;16.84;61.94
78210;BME280;67485;48.816;9.930;2023-05-09T06:43:03;96938.38;;;17.73;59.33
78210;BME280;67485;48.816;9.930;2023-05-09T06:45:29;96941.72;;;17.43;56.56
78210;BME280;67485;48.816;9.930;2023-05-09T06:47:55;96932.53;;;17.15;57.55
78210;BME280;67485;48.816;9.930;2023-05-09T06:50:21;96931.97;;;18.10;57.21
78210;BME280;67485;48.816;9.930;2023-05-09T06:52:46;96913.31;;;18.12;53.98
78210;BME280;67485;48.816;9.930;2023-05-09T06:55:13;96921.88;;;17.83;55.26
78210;BME280;67485;48.816;9.930;2023-05-09T06:57:38;96917.13;;;17.90;55.45
78210;BME280;67485;48.816;9.930;2023-05-09T07:00:07;96921.00;;;17.33;58.50
78210;BME280;67485;48.816;9.930;2023-05-09T07:02:34;96919.44;;;17.29;59.62
78210;BME280;67485;48.816;9.930;2023-05-09T07:05:00;96919.59;;;17.93;58.40
78210;BME280;67485;48.816;9.930;2023-05-09T07:07:25;96921.22;;;18.60;55.75
78210;BME280;67485;48.816;9.930;2023-05-09T07:09:51;96917.22;;;19.30;54.63
78210;BME280;67485;48.816;9.930;2023-05-09T07:12:17;96913.97;;;18.47;55.11
78210;BME280;67485;48.816;9.930;2023-05-09T07:14:43;96912.09;;;18.34;57.30
78210;BME280;67485;48.816;9.930;2023-05-09T07:17:08;96908.63;;;18.79;55.34
78210;BME280;67485;48.816;9.930;2023-05-09T07:19:34;96903.78;;;18.40;57.23
78210;BME280;67485;48.816;9.930;2023-05-09T07:22:00;96897.97;;;18.95;54.80
78210;BME280;67485;48.816;9.930;2023-05-09T07:24:25;96895.22;;;18.67;55.36
78210;BME280;67485;48.816;9.930;2023-05-09T07:26:51;96886.53;;;18.01;58.09
78210;BME280;67485;48.816;9.930;2023-05-09T07:29:17;96888.91;;;17.89;59.14
78210;BME280;67485;48.816;9.930;2023-05-09T07:31:44;96879.03;;;17.59;59.25
78210;BME280;67485;48.816;9.930;2023-05-09T07:34:10;96876.13;;;17.80;58.92
78210;BME280;67485;48.816;9.930;2023-05-09T07:36:36;96875.84;;;18.18;58.73
78210;BME280;67485;48.816;9.930;2023-05-09T07:39:02;96868.84;;;18.63;58.06
78210;BME280;67485;48.816;9.930;2023-05-09T07:41:30;96861.53;;;19.28;55.28
78210;BME280;67485;48.816;9.930;2023-05-09T07:43:55;96868.78;;;19.10;53.85
78210;BME280;67485;48.816;9.930;2023-05-09T07:46:21;96872.03;;;19.44;53.78
78210;BME280;67485;48.816;9.930;2023-05-09T07:48:47;96865.13;;;19.56;50.05
78210;BME280;67485;48.816;9.930;2023-05-09T07:51:13;96858.00;;;20.27;50.45
78210;BME280;67485;48.816;9.930;2023-05-09T07:53:38;96852.03;;;20.64;46.90
78210;BME280;67485;48.816;9.930;2023-05-09T07:56:04;96855.81;;;21.66;45.26
78210;BME280;67485;48.816;9.930;2023-05-09T07:58:31;96855.59;;;20.37;46.86
78210;BME280;67485;48.816;9.930;2023-05-09T08:00:57;96858.91;;;20.13;48.14
78210;BME280;67485;48.816;9.930;2023-05-09T08:03:23;96846.94;;;20.06;47.64
78210;BME280;67485;48.816;9.930;2023-05-09T08:05:52;96842.78;;;21.22;46.25
78210;BME280;67485;48.816;9.930;2023-05-09T08:08:19;96840.91;;;20.71;46.21
78210;BME280;67485;48.816;9.930;2023-05-09T08:10:44;96842.34;;;21.42;46.17
78210;BME280;67485;48.816;9.930;2023-05-09T08:13:10;96827.09;;;21.57;46.35
78210;BME280;67485;48.816;9.930;2023-05-09T08:15:36;96826.13;;;21.32;45.50
78210;BME280;67485;48.816;9.930;2023-05-09T08:18:01;96827.75;;;21.09;46.23
78210;BME280;67485;48.816;9.930;2023-05-09T08:20:27;96817.50;;;21.15;45.27
78210;BME280;67485;48.816;9.930;2023-05-09T08:22:53;96814.00;;;20.21;47.93
78210;BME280;67485;48.816;9.930;2023-05-09T08:25:18;96798.31;;;21.23;46.91
78210;BME280;67485;48.816;9.930;2023-05-09T08:27:45;96797.59;;;22.21;43.17
78210;BME280;67485;48.816;9.930;2023-05-09T08:30:11;96804.13;;;21.80;40.64
78210;BME280;67485;48.816;9.930;2023-05-09T08:32:37;96796.25;;;23.45;38.27
78210;BME280;67485;48.816;9.930;2023-05-09T08:35:02;96799.44;;;22.32;35.80
78210;BME280;67485;48.816;9.930;2023-05-09T08:37:28;96796.56;;;22.35;37.51
78210;BME280;67485;48.816;9.930;2023-05-09T08:39:54;96795.06;;;22.55;37.70
78210;BME280;67485;48.816;9.930;2023-05-09T08:42:21;96793.34;;;22.06;38.55
78210;BME280;67485;48.816;9.930;2023-05-09T08:44:47;96776.16;;;23.39;35.13
78210;BME280;67485;48.816;9.930;2023-05-09T08:47:13;96779.84;;;22.44;35.92
78210;BME280;67485;48.816;9.930;2023-05-09T08:49:40;96776.00;;;21.63;35.06
78210;BME280;67485;48.816;9.930;2023-05-09T08:52:06;96776.59;;;21.79;35.35
78210;BME280;67485;48.816;9.930;2023-05-09T08:54:32;96782.50;;;21.72;37.79
78210;BME280;67485;48.816;9.930;2023-05-09T08:56:59;96784.00;;;22.24;35.76
78210;BME280;67485;48.816;9.930;2023-05-09T08:59:25;96779.34;;;22.39;37.10
78210;BME280;67485;48.816;9.930;2023-05-09T09:01:53;96768.00;;;22.00;37.80
78210;BME280;67485;48.816;9.930;2023-05-09T09:04:19;96775.38;;;20.69;41.54
78210;BME280;67485;48.816;9.930;2023-05-09T09:06:45;96775.66;;;19.84;42.69
78210;BME280;67485;48.816;9.930;2023-05-09T09:09:12;96770.66;;;20.47;42.29
78210;BME280;67485;48.816;9.930;2023-05-09T09:11:39;96767.94;;;20.74;43.44
78210;BME280;67485;48.816;9.930;2023-05-09T09:14:15;96762.63;;;20.74;43.64
78210;BME280;67485;48.816;9.930;2023-05-09T09:16:46;96758.94;;;21.52;40.81
78210;BME280;67485;48.816;9.930;2023-05-09T09:19:16;96759.81;;;21.66;41.71
78210;BME280;67485;48.816;9.930;2023-05-09T09:21:44;96757.56;;;21.47;40.10
78210;BME280;67485;48.816;9.930;2023-05-09T09:24:12;96751.03;;;21.14;41.03
78210;BME280;67485;48.816;9.930;2023-05-09T09:26:48;96750.72;;;21.93;40.55
78210;BME280;67485;48.816;9.930;2023-05-09T09:29:16;96737.00;;;22.81;37.58
78210;BME280;67485;48.816;9.930;2023-05-09T09:31:46;96728.66;;;21.91;38.56
78210;BME280;67485;48.816;9.930;2023-05-09T09:34:18;96732.94;;;21.56;40.46
78210;BME280;67485;48.816;9.930;2023-05-09T09:36:44;96723.50;;;21.76;39.14
78210;BME280;67485;48.816;9.930;2023-05-09T09:39:12;96721.25;;;21.33;42.62
78210;BME280;67485;48.816;9.930;2023-05-09T09:41:39;96711.47;;;21.95;42.29
78210;BME280;67485;48.816;9.930;2023-05-09T09:44:18;96706.84;;;21.97;41.92
78210;BME280;67485;48.816;9.930;2023-05-09T09:49:18;96710.03;;;22.96;37.06
78210;BME280;67485;48.816;9.930;2023-05-09T09:51:49;96711.16;;;22.11;40.01
78210;BME280;67485;48.816;9.930;2023-05-09T09:54:15;96703.81;;;22.50;39.38
78210;BME280;67485;48.816;9.930;2023-05-09T09:59:12;96696.06;;;22.34;41.34
78210;BME280;67485;48.816;9.930;2023-05-09T10:02:03;96688.41;;;22.29;38.97
78210;BME280;67485;48.816;9.930;2023-05-09T10:04:35;96684.50;;;22.46;38.11
78210;BME280;67485;48.816;9.930;2023-05-09T10:07:05;96690.28;;;21.80;40.20
78210;BME280;67485;48.816;9.930;2023-05-09T10:09:34;96683.94;;;22.30;40.15
78210;BME280;67485;48.816;9.930;2023-05-09T10:12:02;96676.03;;;22.75;38.36
78210;BME280;67485;48.816;9.930;2023-05-09T10:14:30;96679.91;;;21.89;39.99
78210;BME280;67485;48.816;9.930;2023-05-09T10:16:56;96670.81;;;22.27;41.75
78210;BME280;67485;48.816;9.930;2023-05-09T10:19:24;96665.94;;;23.13;40.19
78210;BME280;67485;48.816;9.930;2023-05-09T10:21:54;96660.75;;;23.00;38.05
78210;BME280;67485;48.816;9.930;2023-05-09T10:24:28;96658.63;;;23.93;36.85
78210;BME280;67485;48.816;9.930;2023-05-09T10:27:03;96647.44;;;23.99;36.17
78210;BME280;67485;48.816;9.930;2023-05-09T10:29:35;96650.28;;;24.50;35.90
78210;BME280;67485;48.816;9.930;2023-05-09T10:32:13;96641.81;;;24.44;36.57
78210;BME280;67485;48.816;9.930;2023-05-09T10:34:41;96640.69;;;24.05;35.96
78210;BME280;67485;48.816;9.930;2023-05-09T10:37:09;96639.81;;;24.89;35.45
78210;BME280;67485;48.816;9.930;2023-05-09T10:39:35;96637.78;;;24.50;36.37
78210;BME280;67485;48.816;9.930;2023-05-09T10:42:02;96631.81;;;24.47;37.70
78210;BME280;67485;48.816;9.930;2023-05-09T10:44:28;96626.25;;;23.96;36.54
78210;BME280;67485;48.816;9.930;2023-05-09T10:46:54;96632.31;;;23.22;40.63
78210;BME280;67485;48.816;9.930;2023-05-09T10:49:21;96632.66;;;22.02;42.53
78210;BME280;67485;48.816;9.930;2023-05-09T10:51:49;96629.22;;;21.89;43.83
78210;BME280;67485;48.816;9.930;2023-05-09T10:54:26;96624.06;;;22.45;43.17
78210;BME280;67485;48.816;9.930;2023-05-09T10:56:53;96619.50;;;22.34;43.33
78210;BME280;67485;48.816;9.930;2023-05-09T10:59:33;96610.22;;;22.86;41.94
78210;BME280;67485;48.816;9.930;2023-05-09T11:02:03;96594.50;;;23.38;40.92
78210;BME280;67485;48.816;9.930;2023-05-09T11:04:30;96593.09;;;23.55;40.95
78210;BME280;67485;48.816;9.930;2023-05-09T11:06:58;96590.78;;;23.94;41.60
78210;BME280;67485;48.816;9.930;2023-05-09T11:11:55;96581.78;;;23.51;43.82
78210;BME280;67485;48.816;9.930;2023-05-09T11:17:06;96576.25;;;22.76;42.43
78210;BME280;67485;48.816;9.930;2023-05-09T11:22:13;96563.94;;;23.52;43.57
78210;BME280;67485;48.816;9.930;2023-05-09T11:24:39;96564.06;;;23.06;43.61
78210;BME280;67485;48.816;9.930;2023-05-09T11:27:16;96565.09;;;22.71;44.06
78210;BME280;67485;48.816;9.930;2023-05-09T11:29:54;96556.41;;;23.02;43.86
78210;BME280;67485;48.816;9.930;2023-05-09T11:32:21;96564.47;;;22.45;43.75
78210;BME280;67485;48.816;9.930;2023-05-09T11:34:48;96551.97;;;22.68;43.29
78210;BME280;67485;48.816;9.930;2023-05-09T11:37:17;96540.09;;;23.48;43.46
78210;BME280;67485;48.816;9.930;2023-05-09T11:39:56;96539.41;;;24.00;41.99
78210;BME280;67485;48.816;9.930;2023-05-09T11:42:26;96531.13;;;23.17;44.42
78210;BME280;67485;48.816;9.930;2023-05-09T11:44:52;96536.44;;;22.62;44.79
78210;BME280;67485;48.816;9.930;2023-05-09T11:47:19;96521.84;;;22.32;45.82
78210;BME280;67485;48.816;9.930;2023-05-09T11:49:48;96524.50;;;22.66;44.97
78210;BME280;67485;48.816;9.930;2023-05-09T11:52:15;96509.31;;;23.33;44.08
78210;BME280;67485;48.816;9.930;2023-05-09T11:54:41;96521.13;;;22.64;45.96
78210;BME280;67485;48.816;9.930;2023-05-09T11:57:06;96508.22;;;21.90;47.50
78210;BME280;67485;48.816;9.930;2023-05-09T11:59:33;96507.50;;;21.88;48.10
78210;BME280;67485;48.816;9.930;2023-05-09T12:02:06;96506.78;;;22.19;48.05
78210;BME280;67485;48.816;9.930;2023-05-09T12:04:32;96513.59;;;22.24;47.70
78210;BME280;67485;48.816;9.930;2023-05-09T12:06:59;96505.59;;;22.58;47.81
78210;BME280;67485;48.816;9.930;2023-05-09T12:09:29;96500.13;;;21.91;47.84
78210;BME280;67485;48.816;9.930;2023-05-09T12:11:57;96490.19;;;22.61;47.85
78210;BME280;67485;48.816;9.930;2023-05-09T12:14:32;96490.84;;;22.42;46.68
78210;BME280;67485;48.816;9.930;2023-05-09T12:16:58;96479.38;;;22.63;47.15
78210;BME280;67485;48.816;9.930;2023-05-09T12:19:25;96487.91;;;22.45;46.78
78210;BME280;67485;48.816;9.930;2023-05-09T12:22:02;96481.31;;;21.93;48.02
78210;BME280;67485;48.816;9.930;2023-05-09T12:24:29;96472.09;;;21.85;47.55
78210;BME280;67485;48.816;9.930;2023-05-09T12:26:56;96467.28;;;22.47;48.07
78210;BME280;67485;48.816;9.930;2023-05-09T12:29:23;96468.94;;;21.80;48.45
78210;BME280;67485;48.816;9.930;2023-05-09T12:31:51;96462.50;;;21.83;49.12
78210;BME280;67485;48.816;9.930;2023-05-09T12:34:17;96461.78;;;21.81;48.66
78210;BME280;67485;48.816;9.930;2023-05-09T12:36:44;96448.84;;;21.99;49.05
78210;BME280;67485;48.816;9.930;2023-05-09T12:39:16;96463.47;;;21.35;50.53
78210;BME280;67485;48.816;9.930;2023-05-09T12:41:50;96449.78;;;22.21;49.70
78210;BME280;67485;48.816;9.930;2023-05-09T12:44:24;96447.50;;;22.16;47.66
78210;BME280;67485;48.816;9.930;2023-05-09T12:47:00;96435.56;;;22.98;45.94
78210;BME280;67485;48.816;9.930;2023-05-09T12:49:27;96434.03;;;23.49;44.82
78210;BME280;67485;48.816;9.930;2023-05-09T12:51:55;96428.81;;;23.78;44.72
78210;BME280;67485;48.816;9.930;2023-05-09T12:54:27;96419.72;;;24.53;43.65
78210;BME280;67485;48.816;9.930;2023-05-09T12:56:56;96423.59;;;24.80;43.29
78210;BME280;67485;48.816;9.930;2023-05-09T12:59:26;96415.44;;;24.40;42.95
78210;BME280;67485;48.816;9.930;2023-05-09T13:01:56;96411.03;;;23.89;44.63
78210;BME280;67485;48.816;9.930;2023-05-09T13:04:24;96414.72;;;23.45;46.62
78210;BME280;67485;48.816;9.930;2023-05-09T13:06:52;96409.16;;;23.58;46.32
78210;BME280;67485;48.816;9.930;2023-05-09T13:09:21;96413.16;;;23.64;45.09
78210;BME280;67485;48.816;9.930;2023-05-09T13:11:46;96403.00;;;23.04;46.42
78210;BME280;67485;48.816;9.930;2023-05-09T13:14:13;96396.66;;;23.38;46.27
78210;BME280;67485;48.816;9.930;2023-05-09T13:16:39;96393.19;;;23.99;43.78
78210;BME280;67485;48.816;9.930;2023-05-09T13:19:05;96387.56;;;23.71;45.52
78210;BME280;67485;48.816;9.930;2023-05-09T13:21:32;96392.09;;;23.80;45.23
78210;BME280;67485;48.816;9.930;2023-05-09T13:23:57;96384.34;;;23.25;45.89
78210;BME280;67485;48.816;9.930;2023-05-09T13:26:23;96380.06;;;23.96;44.58
78210;BME280;67485;48.816;9.930;2023-05-09T13:28:50;96374.75;;;24.06;43.92
78210;BME280;67485;48.816;9.930;2023-05-09T13:31:17;96375.75;;;23.84;43.41
78210;BME280;67485;48.816;9.930;2023-05-09T13:33:42;96370.69;;;23.80;44.74